sensor_id;sensor_type;location;lat;lon;timestamp;temperature;humidity
37204;DHT22;23098;48.054;10.636;2022-12-04T00:00:49;-0.20;99.90
37204;DHT22;23098;48.054;10.636;2022-12-04T00:03:15;-0.10;99.90
37204;DHT22;23098;48.054;10.636;2022-12-04T00:05:41;-0.20;99.90
37204;DHT22;23098;48.054;10.636;2022-12-04T00:08:07;-0.20;99.90
37204;DHT22;23098;48.054;10.636;2022-12-04T00:10:32;-0.20;99.90
37204;DHT22;23098;48.054;10.636;2022-12-04T00:12:58;-0.20;99.90
37204;DHT22;23098;48.054;10.636;2022-12-04T00:15:23;-0.20;99.90
37204;DHT22;23098;48.054;10.636;2022-12-04T00:17:49;-0.10;99.90
37204;DHT22;23098;48.054;10.636;2022-12-04T00:20:14;-0.20;99.90
37204;DHT22;23098;48.054;10.636;2022-12-04T00:22:40;-0.20;99.90
37204;DHT22;23098;48.054;10.636;2022-12-04T00:25:06;-0.20;99.90
37204;DHT22;23098;48.054;10.636;2022-12-04T00:27:31;-0.20;99.90
37204;DHT22;23098;48.054;10.636;2022-12-04T00:29:57;-0.20;99.90
37204;DHT22;23098;48.054;10.636;2022-12-04T00:32:22;-0.20;99.90
37204;DHT22;23098;48.054;10.636;2022-12-04T00:34:51;-0.10;99.90
37204;DHT22;23098;48.054;10.636;2022-12-04T00:37:16;-0.10;99.90
37204;DHT22;23098;48.054;10.636;2022-12-04T00:39:42;-0.10;99.90
37204;DHT22;23098;48.054;10.636;2022-12-04T00:42:07;-0.10;99.90
37204;DHT22;23098;48.054;10.636;2022-12-04T00:44:33;-0.10;99.90
37204;DHT22;23098;48.054;10.636;2022-12-04T00:46:58;-0.10;99.90
37204;DHT22;23098;48.054;10.636;2022-12-04T00:49:24;-0.20;99.90
37204;DHT22;23098;48.054;10.636;2022-12-04T00:51:49;-0.20;99.90
37204;DHT22;23098;48.054;10.636;2022-12-04T00:54:15;-0.10;99.90
37204;DHT22;23098;48.054;10.636;2022-12-04T00:56:41;-0.10;99.90
37204;DHT22;23098;48.054;10.636;2022-12-04T00:59:06;0.00;99.90
37204;DHT22;23098;48.054;10.636;2022-12-04T01:01:32;-0.10;99.90
37204;DHT22;23098;48.054;10.636;2022-12-04T01:03:57;-0.10;99.90
37204;DHT22;23098;48.054;10.636;2022-12-04T01:06:31;0.00;99.90
37204;DHT22;23098;48.054;10.636;2022-12-04T01:08:59;-0.20;99.90
37204;DHT22;23098;48.054;10.636;2022-12-04T01:11:26;-0.10;99.90
37204;DHT22;23098;48.054;10.636;2022-12-04T01:13:52;-0.10;99.90
37204;DHT22;23098;48.054;10.636;2022-12-04T01:16:21;-0.10;99.90
37204;DHT22;23098;48.054;10.636;2022-12-04T01:18:48;-0.10;99.90
37204;DHT22;23098;48.054;10.636;2022-12-04T01:21:13;-0.10;99.90
37204;DHT22;23098;48.054;10.636;2022-12-04T01:23:39;-0.10;99.90
37204;DHT22;23098;48.054;10.636;2022-12-04T01:26:05;-0.20;99.90
37204;DHT22;23098;48.054;10.636;2022-12-04T01:28:30;-0.20;99.90
37204;DHT22;23098;48.054;10.636;2022-12-04T01:31:01;-0.20;99.90
37204;DHT22;23098;48.054;10.636;2022-12-04T01:33:28;-0.10;99.90
37204;DHT22;23098;48.054;10.636;2022-12-04T01:35:55;-0.10;99.90
37204;DHT22;23098;48.054;10.636;2022-12-04T01:38:21;-0.10;99.90
37204;DHT22;23098;48.054;10.636;2022-12-04T01:40:47;-0.20;99.90
37204;DHT22;23098;48.054;10.636;2022-12-04T01:43:13;-0.20;99.90
37204;DHT22;23098;48.054;10.636;2022-12-04T01:45:40;-0.20;99.90
37204;DHT22;23098;48.054;10.636;2022-12-04T01:48:31;-0.20;99.90
37204;DHT22;23098;48.054;10.636;2022-12-04T01:51:01;-0.20;99.90
37204;DHT22;23098;48.054;10.636;2022-12-04T01:53:28;-0.20;99.90
37204;DHT22;23098;48.054;10.636;2022-12-04T01:55:55;-0.20;99.90
37204;DHT22;23098;48.054;10.636;2022-12-04T01:58:26;-0.20;99.90
37204;DHT22;23098;48.054;10.636;2022-12-04T02:00:54;-0.20;99.90
37204;DHT22;23098;48.054;10.636;2022-12-04T02:03:23;-0.10;99.90
37204;DHT22;23098;48.054;10.636;2022-12-04T02:05:48;-0.10;99.90
37204;DHT22;23098;48.054;10.636;2022-12-04T02:08:14;-0.10;99.90
37204;DHT22;23098;48.054;10.636;2022-12-04T02:13:54;-0.10;99.90
37204;DHT22;23098;48.054;10.636;2022-12-04T02:16:30;-0.10;99.90
37204;DHT22;23098;48.054;10.636;2022-12-04T02:21:38;-0.10;99.90
37204;DHT22;23098;48.054;10.636;2022-12-04T02:24:38;-0.10;99.90
37204;DHT22;23098;48.054;10.636;2022-12-04T02:30:00;-0.20;99.90
37204;DHT22;23098;48.054;10.636;2022-12-04T02:35:14;-0.20;99.90
37204;DHT22;23098;48.054;10.636;2022-12-04T02:37:59;-0.20;99.90
37204;DHT22;23098;48.054;10.636;2022-12-04T02:40:30;-0.20;99.90
37204;DHT22;23098;48.054;10.636;2022-12-04T02:46:00;-0.20;99.90
37204;DHT22;23098;48.054;10.636;2022-12-04T02:48:30;-0.20;99.90
37204;DHT22;23098;48.054;10.636;2022-12-04T02:50:59;-0.30;99.90
37204;DHT22;23098;48.054;10.636;2022-12-04T02:53:36;-0.20;99.90
37204;DHT22;23098;48.054;10.636;2022-12-04T02:56:08;-0.30;99.90
37204;DHT22;23098;48.054;10.636;2022-12-04T02:59:11;-0.20;99.90
37204;DHT22;23098;48.054;10.636;2022-12-04T03:01:40;-0.20;99.90
37204;DHT22;23098;48.054;10.636;2022-12-04T03:04:48;-0.20;99.90
37204;DHT22;23098;48.054;10.636;2022-12-04T03:06:58;-0.20;99.90
37204;DHT22;23098;48.054;10.636;2022-12-04T03:15:16;-0.30;99.90
37204;DHT22;23098;48.054;10.636;2022-12-04T03:17:51;-0.30;99.90
37204;DHT22;23098;48.054;10.636;2022-12-04T03:20:18;-0.30;99.90
37204;DHT22;23098;48.054;10.636;2022-12-04T03:22:48;-0.30;99.90
37204;DHT22;23098;48.054;10.636;2022-12-04T03:25:16;-0.30;99.90
37204;DHT22;23098;48.054;10.636;2022-12-04T03:28:00;-0.20;99.90
37204;DHT22;23098;48.054;10.636;2022-12-04T03:30:32;-0.20;99.90
37204;DHT22;23098;48.054;10.636;2022-12-04T03:33:08;-0.20;99.90
37204;DHT22;23098;48.054;10.636;2022-12-04T03:35:50;-0.30;99.90
37204;DHT22;23098;48.054;10.636;2022-12-04T03:38:29;-0.20;99.90
37204;DHT22;23098;48.054;10.636;2022-12-04T03:41:00;-0.20;99.90
37204;DHT22;23098;48.054;10.636;2022-12-04T03:43:38;-0.20;99.90
37204;DHT22;23098;48.054;10.636;2022-12-04T03:46:13;-0.20;99.90
37204;DHT22;23098;48.054;10.636;2022-12-04T03:48:45;-0.20;99.90
37204;DHT22;23098;48.054;10.636;2022-12-04T03:51:28;-0.20;99.90
37204;DHT22;23098;48.054;10.636;2022-12-04T03:54:20;-0.20;99.90
37204;DHT22;23098;48.054;10.636;2022-12-04T03:56:52;-0.20;99.90
37204;DHT22;23098;48.054;10.636;2022-12-04T03:59:42;-0.20;99.90
37204;DHT22;23098;48.054;10.636;2022-12-04T04:02:13;-0.20;99.90
37204;DHT22;23098;48.054;10.636;2022-12-04T04:04:40;-0.20;99.90
37204;DHT22;23098;48.054;10.636;2022-12-04T04:07:15;-0.10;99.90
37204;DHT22;23098;48.054;10.636;2022-12-04T04:09:46;-0.10;99.90
37204;DHT22;23098;48.054;10.636;2022-12-04T04:12:19;-0.10;99.90
37204;DHT22;23098;48.054;10.636;2022-12-04T04:14:52;-0.10;99.90
37204;DHT22;23098;48.054;10.636;2022-12-04T04:17:41;-0.10;99.90
37204;DHT22;23098;48.054;10.636;2022-12-04T04:20:38;-0.10;99.90
37204;DHT22;23098;48.054;10.636;2022-12-04T04:23:23;-0.10;99.90
37204;DHT22;23098;48.054;10.636;2022-12-04T04:26:11;-0.10;99.90
37204;DHT22;23098;48.054;10.636;2022-12-04T04:28:40;-0.10;99.90
37204;DHT22;23098;48.054;10.636;2022-12-04T04:34:04;0.00;99.90
37204;DHT22;23098;48.054;10.636;2022-12-04T04:37:01;0.00;99.90
37204;DHT22;23098;48.054;10.636;2022-12-04T04:39:41;0.00;99.90
37204;DHT22;23098;48.054;10.636;2022-12-04T04:44:44;-0.10;99.90
37204;DHT22;23098;48.054;10.636;2022-12-04T04:47:31;-0.10;99.90
37204;DHT22;23098;48.054;10.636;2022-12-04T04:50:00;0.00;99.90
37204;DHT22;23098;48.054;10.636;2022-12-04T04:52:27;0.00;99.90
37204;DHT22;23098;48.054;10.636;2022-12-04T04:54:54;0.00;99.90
37204;DHT22;23098;48.054;10.636;2022-12-04T04:57:32;0.00;99.90
37204;DHT22;23098;48.054;10.636;2022-12-04T05:00:00;0.00;99.90
37204;DHT22;23098;48.054;10.636;2022-12-04T05:02:26;0.00;99.90
37204;DHT22;23098;48.054;10.636;2022-12-04T05:04:53;0.00;99.90
37204;DHT22;23098;48.054;10.636;2022-12-04T05:07:20;0.00;99.90
37204;DHT22;23098;48.054;10.636;2022-12-04T05:09:45;0.00;99.90
37204;DHT22;23098;48.054;10.636;2022-12-04T05:12:11;0.00;99.90
37204;DHT22;23098;48.054;10.636;2022-12-04T05:14:36;0.00;99.90
37204;DHT22;23098;48.054;10.636;2022-12-04T05:17:04;0.00;99.90
37204;DHT22;23098;48.054;10.636;2022-12-04T05:19:32;0.00;99.90
37204;DHT22;23098;48.054;10.636;2022-12-04T05:22:16;0.00;99.90
37204;DHT22;23098;48.054;10.636;2022-12-04T05:24:42;0.00;99.90
37204;DHT22;23098;48.054;10.636;2022-12-04T05:27:07;0.00;99.90
37204;DHT22;23098;48.054;10.636;2022-12-04T05:29:33;0.00;99.90
37204;DHT22;23098;48.054;10.636;2022-12-04T05:31:59;0.00;99.90
37204;DHT22;23098;48.054;10.636;2022-12-04T05:34:24;0.00;99.90
37204;DHT22;23098;48.054;10.636;2022-12-04T05:36:51;0.00;99.90
37204;DHT22;23098;48.054;10.636;2022-12-04T05:39:16;0.00;99.90
37204;DHT22;23098;48.054;10.636;2022-12-04T05:41:42;0.10;99.90
37204;DHT22;23098;48.054;10.636;2022-12-04T05:44:07;0.10;99.90
37204;DHT22;23098;48.054;10.636;2022-12-04T05:46:33;0.10;99.90
37204;DHT22;23098;48.054;10.636;2022-12-04T05:48:58;0.00;99.90
37204;DHT22;23098;48.054;10.636;2022-12-04T05:51:24;0.00;99.90
37204;DHT22;23098;48.054;10.636;2022-12-04T05:53:50;0.00;99.90
37204;DHT22;23098;48.054;10.636;2022-12-04T05:56:16;0.10;99.90
37204;DHT22;23098;48.054;10.636;2022-12-04T05:58:41;0.20;99.90
37204;DHT22;23098;48.054;10.636;2022-12-04T06:01:19;0.00;99.90
37204;DHT22;23098;48.054;10.636;2022-12-04T06:03:45;0.00;99.90
37204;DHT22;23098;48.054;10.636;2022-12-04T06:06:31;0.00;99.90
37204;DHT22;23098;48.054;10.636;2022-12-04T06:08:58;0.00;99.90
37204;DHT22;23098;48.054;10.636;2022-12-04T06:11:26;0.10;99.90
37204;DHT22;23098;48.054;10.636;2022-12-04T06:13:53;0.20;99.90
37204;DHT22;23098;48.054;10.636;2022-12-04T06:16:25;0.10;99.90
37204;DHT22;23098;48.054;10.636;2022-12-04T06:18:53;0.10;99.90
37204;DHT22;23098;48.054;10.636;2022-12-04T06:21:20;0.10;99.90
37204;DHT22;23098;48.054;10.636;2022-12-04T06:23:46;0.10;99.90
37204;DHT22;23098;48.054;10.636;2022-12-04T06:26:12;0.10;99.90
37204;DHT22;23098;48.054;10.636;2022-12-04T06:28:37;0.10;99.90
37204;DHT22;23098;48.054;10.636;2022-12-04T06:31:05;0.10;99.90
37204;DHT22;23098;48.054;10.636;2022-12-04T06:33:31;0.00;99.90
37204;DHT22;23098;48.054;10.636;2022-12-04T06:35:58;0.00;99.90
37204;DHT22;23098;48.054;10.636;2022-12-04T06:38:23;0.10;99.90
37204;DHT22;23098;48.054;10.636;2022-12-04T06:40:49;0.10;99.90
37204;DHT22;23098;48.054;10.636;2022-12-04T06:43:14;0.10;99.90
37204;DHT22;23098;48.054;10.636;2022-12-04T06:45:40;0.20;99.90
37204;DHT22;23098;48.054;10.636;2022-12-04T06:48:05;0.20;99.90
37204;DHT22;23098;48.054;10.636;2022-12-04T06:50:31;0.20;99.90
37204;DHT22;23098;48.054;10.636;2022-12-04T06:52:56;0.10;99.90
37204;DHT22;23098;48.054;10.636;2022-12-04T06:55:22;0.10;99.90
37204;DHT22;23098;48.054;10.636;2022-12-04T06:57:47;0.10;99.90
37204;DHT22;23098;48.054;10.636;2022-12-04T07:00:18;0.10;99.90
37204;DHT22;23098;48.054;10.636;2022-12-04T07:02:44;0.10;99.90
37204;DHT22;23098;48.054;10.636;2022-12-04T07:05:09;0.10;99.90
37204;DHT22;23098;48.054;10.636;2022-12-04T07:07:35;0.10;99.90
37204;DHT22;23098;48.054;10.636;2022-12-04T07:10:02;0.10;99.90
37204;DHT22;23098;48.054;10.636;2022-12-04T07:12:28;0.00;99.90
37204;DHT22;23098;48.054;10.636;2022-12-04T07:14:53;0.10;99.90
37204;DHT22;23098;48.054;10.636;2022-12-04T07:17:19;0.10;99.90
37204;DHT22;23098;48.054;10.636;2022-12-04T07:19:44;0.10;99.90
37204;DHT22;23098;48.054;10.636;2022-12-04T07:22:10;0.10;99.90
37204;DHT22;23098;48.054;10.636;2022-12-04T07:24:36;0.10;99.90
37204;DHT22;23098;48.054;10.636;2022-12-04T07:27:02;0.10;99.90
37204;DHT22;23098;48.054;10.636;2022-12-04T07:29:28;0.20;99.90
37204;DHT22;23098;48.054;10.636;2022-12-04T07:31:53;0.20;99.90
37204;DHT22;23098;48.054;10.636;2022-12-04T07:34:19;0.20;99.90
37204;DHT22;23098;48.054;10.636;2022-12-04T07:36:44;0.20;99.90
37204;DHT22;23098;48.054;10.636;2022-12-04T07:39:10;0.20;99.90
37204;DHT22;23098;48.054;10.636;2022-12-04T07:41:36;0.20;99.90
37204;DHT22;23098;48.054;10.636;2022-12-04T07:44:01;0.10;99.90
37204;DHT22;23098;48.054;10.636;2022-12-04T07:46:28;0.20;99.90
37204;DHT22;23098;48.054;10.636;2022-12-04T07:48:55;0.20;99.90
37204;DHT22;23098;48.054;10.636;2022-12-04T07:51:23;0.20;99.90
37204;DHT22;23098;48.054;10.636;2022-12-04T07:53:49;0.20;99.90
37204;DHT22;23098;48.054;10.636;2022-12-04T07:56:16;0.20;99.90
37204;DHT22;23098;48.054;10.636;2022-12-04T07:58:42;0.10;99.90
37204;DHT22;23098;48.054;10.636;2022-12-04T08:01:11;0.10;99.90
37204;DHT22;23098;48.054;10.636;2022-12-04T08:03:37;0.10;99.90
37204;DHT22;23098;48.054;10.636;2022-12-04T08:06:04;0.10;99.90
37204;DHT22;23098;48.054;10.636;2022-12-04T08:08:30;0.10;99.90
37204;DHT22;23098;48.054;10.636;2022-12-04T08:10:57;0.20;99.90
37204;DHT22;23098;48.054;10.636;2022-12-04T08:13:22;0.20;99.90
37204;DHT22;23098;48.054;10.636;2022-12-04T08:15:48;0.10;99.90
37204;DHT22;23098;48.054;10.636;2022-12-04T08:18:13;0.10;99.90
37204;DHT22;23098;48.054;10.636;2022-12-04T08:20:39;0.20;99.90
37204;DHT22;23098;48.054;10.636;2022-12-04T08:23:05;0.20;99.90
37204;DHT22;23098;48.054;10.636;2022-12-04T08:25:30;0.20;99.90
37204;DHT22;23098;48.054;10.636;2022-12-04T08:27:57;0.20;99.90
37204;DHT22;23098;48.054;10.636;2022-12-04T08:30:23;0.20;99.90
37204;DHT22;23098;48.054;10.636;2022-12-04T08:32:48;0.20;99.90
37204;DHT22;23098;48.054;10.636;2022-12-04T08:35:14;0.20;99.90
37204;DHT22;23098;48.054;10.636;2022-12-04T08:37:39;0.20;99.90
37204;DHT22;23098;48.054;10.636;2022-12-04T08:40:05;0.20;99.90
37204;DHT22;23098;48.054;10.636;2022-12-04T08:42:31;0.10;99.90
37204;DHT22;23098;48.054;10.636;2022-12-04T08:44:56;0.20;99.90
37204;DHT22;23098;48.054;10.636;2022-12-04T08:47:22;0.10;99.90
37204;DHT22;23098;48.054;10.636;2022-12-04T08:49:48;0.00;99.90
37204;DHT22;23098;48.054;10.636;2022-12-04T08:52:13;0.00;99.90
37204;DHT22;23098;48.054;10.636;2022-12-04T08:54:39;0.10;99.90
37204;DHT22;23098;48.054;10.636;2022-12-04T08:57:04;0.10;99.90
37204;DHT22;23098;48.054;10.636;2022-12-04T08:59:30;0.10;99.90
37204;DHT22;23098;48.054;10.636;2022-12-04T09:01:55;0.20;99.90
37204;DHT22;23098;48.054;10.636;2022-12-04T09:04:21;0.20;99.90
37204;DHT22;23098;48.054;10.636;2022-12-04T09:06:46;0.20;99.90
37204;DHT22;23098;48.054;10.636;2022-12-04T09:09:12;0.20;99.90
37204;DHT22;23098;48.054;10.636;2022-12-04T09:11:38;0.20;99.90
37204;DHT22;23098;48.054;10.636;2022-12-04T09:14:03;0.10;99.90
37204;DHT22;23098;48.054;10.636;2022-12-04T09:16:30;0.20;99.90
37204;DHT22;23098;48.054;10.636;2022-12-04T09:18:55;0.20;99.90
37204;DHT22;23098;48.054;10.636;2022-12-04T09:21:23;0.30;99.90
37204;DHT22;23098;48.054;10.636;2022-12-04T09:23:49;0.30;99.90
37204;DHT22;23098;48.054;10.636;2022-12-04T09:26:26;0.30;99.90
37204;DHT22;23098;48.054;10.636;2022-12-04T09:28:53;0.30;99.90
37204;DHT22;23098;48.054;10.636;2022-12-04T09:31:19;0.30;99.90
37204;DHT22;23098;48.054;10.636;2022-12-04T09:33:45;0.20;99.90
37204;DHT22;23098;48.054;10.636;2022-12-04T09:36:12;0.10;99.90
37204;DHT22;23098;48.054;10.636;2022-12-04T09:38:41;0.10;99.90
37204;DHT22;23098;48.054;10.636;2022-12-04T09:41:30;0.20;99.90
37204;DHT22;23098;48.054;10.636;2022-12-04T09:46:38;0.20;99.90
37204;DHT22;23098;48.054;10.636;2022-12-04T09:49:15;0.10;99.90
37204;DHT22;23098;48.054;10.636;2022-12-04T09:51:41;0.20;99.90
37204;DHT22;23098;48.054;10.636;2022-12-04T09:54:19;0.20;99.90
37204;DHT22;23098;48.054;10.636;2022-12-04T09:57:16;0.20;99.90
37204;DHT22;23098;48.054;10.636;2022-12-04T09:59:45;0.40;99.90
37204;DHT22;23098;48.054;10.636;2022-12-04T10:02:34;0.40;99.90
37204;DHT22;23098;48.054;10.636;2022-12-04T10:05:01;0.40;99.90
37204;DHT22;23098;48.054;10.636;2022-12-04T10:07:44;0.40;99.90
37204;DHT22;23098;48.054;10.636;2022-12-04T10:10:23;0.30;99.90
37204;DHT22;23098;48.054;10.636;2022-12-04T10:13:04;0.40;99.90
37204;DHT22;23098;48.054;10.636;2022-12-04T10:15:54;0.50;99.90
37204;DHT22;23098;48.054;10.636;2022-12-04T10:24:33;0.40;99.90
37204;DHT22;23098;48.054;10.636;2022-12-04T10:27:08;0.50;99.90
37204;DHT22;23098;48.054;10.636;2022-12-04T10:29:36;0.60;99.90
37204;DHT22;23098;48.054;10.636;2022-12-04T10:32:30;0.50;99.90
37204;DHT22;23098;48.054;10.636;2022-12-04T10:35:02;0.50;99.90
37204;DHT22;23098;48.054;10.636;2022-12-04T10:37:33;0.50;99.90
37204;DHT22;23098;48.054;10.636;2022-12-04T10:40:18;0.60;99.90
37204;DHT22;23098;48.054;10.636;2022-12-04T10:43:01;0.50;99.90
37204;DHT22;23098;48.054;10.636;2022-12-04T10:45:27;0.60;99.90
37204;DHT22;23098;48.054;10.636;2022-12-04T10:47:53;0.60;99.90
37204;DHT22;23098;48.054;10.636;2022-12-04T10:50:21;0.60;99.90
37204;DHT22;23098;48.054;10.636;2022-12-04T10:52:47;0.60;99.90
37204;DHT22;23098;48.054;10.636;2022-12-04T10:55:13;0.70;99.90
37204;DHT22;23098;48.054;10.636;2022-12-04T10:57:45;0.70;99.90
37204;DHT22;23098;48.054;10.636;2022-12-04T11:00:24;0.70;99.90
37204;DHT22;23098;48.054;10.636;2022-12-04T11:02:52;0.80;99.90
37204;DHT22;23098;48.054;10.636;2022-12-04T11:05:43;0.80;99.90
37204;DHT22;23098;48.054;10.636;2022-12-04T11:08:20;0.80;99.90
37204;DHT22;23098;48.054;10.636;2022-12-04T11:11:03;0.70;99.90
37204;DHT22;23098;48.054;10.636;2022-12-04T11:13:29;0.80;99.90
37204;DHT22;23098;48.054;10.636;2022-12-04T11:15:56;0.80;99.90
37204;DHT22;23098;48.054;10.636;2022-12-04T11:18:31;0.80;99.90
37204;DHT22;23098;48.054;10.636;2022-12-04T11:21:04;0.80;99.90
37204;DHT22;23098;48.054;10.636;2022-12-04T11:23:53;0.90;99.90
37204;DHT22;23098;48.054;10.636;2022-12-04T11:26:34;0.90;99.90
37204;DHT22;23098;48.054;10.636;2022-12-04T11:29:02;0.90;99.90
37204;DHT22;23098;48.054;10.636;2022-12-04T11:31:30;1.00;99.90
37204;DHT22;23098;48.054;10.636;2022-12-04T11:33:57;0.90;99.90
37204;DHT22;23098;48.054;10.636;2022-12-04T11:36:38;0.80;99.90
37204;DHT22;23098;48.054;10.636;2022-12-04T11:39:37;0.80;99.90
37204;DHT22;23098;48.054;10.636;2022-12-04T11:42:21;0.90;99.90
37204;DHT22;23098;48.054;10.636;2022-12-04T11:45:01;1.00;99.90
37204;DHT22;23098;48.054;10.636;2022-12-04T11:47:30;0.90;99.90
37204;DHT22;23098;48.054;10.636;2022-12-04T11:50:12;1.00;99.90
37204;DHT22;23098;48.054;10.636;2022-12-04T11:53:03;1.00;99.90
37204;DHT22;23098;48.054;10.636;2022-12-04T11:58:40;1.10;99.90
37204;DHT22;23098;48.054;10.636;2022-12-04T12:04:09;1.30;99.90
37204;DHT22;23098;48.054;10.636;2022-12-04T12:09:48;1.30;99.90
37204;DHT22;23098;48.054;10.636;2022-12-04T12:12:33;1.30;99.90
37204;DHT22;23098;48.054;10.636;2022-12-04T12:20:48;1.50;99.90
37204;DHT22;23098;48.054;10.636;2022-12-04T12:26:15;1.40;99.90
37204;DHT22;23098;48.054;10.636;2022-12-04T12:29:09;1.30;99.90
37204;DHT22;23098;48.054;10.636;2022-12-04T12:34:36;1.40;99.90
37204;DHT22;23098;48.054;10.636;2022-12-04T12:37:24;1.50;99.90
37204;DHT22;23098;48.054;10.636;2022-12-04T12:40:57;1.50;99.90
37204;DHT22;23098;48.054;10.636;2022-12-04T12:42:59;1.50;99.90
37204;DHT22;23098;48.054;10.636;2022-12-04T12:45:34;1.50;99.90
37204;DHT22;23098;48.054;10.636;2022-12-04T12:48:25;1.40;99.90
37204;DHT22;23098;48.054;10.636;2022-12-04T12:51:32;1.40;99.90
37204;DHT22;23098;48.054;10.636;2022-12-04T12:57:19;1.60;99.90
37204;DHT22;23098;48.054;10.636;2022-12-04T12:59:50;1.60;99.90
37204;DHT22;23098;48.054;10.636;2022-12-04T13:02:26;1.70;99.90
37204;DHT22;23098;48.054;10.636;2022-12-04T13:04:56;1.60;99.90
37204;DHT22;23098;48.054;10.636;2022-12-04T13:07:29;1.70;99.90
37204;DHT22;23098;48.054;10.636;2022-12-04T13:10:06;1.70;99.90
37204;DHT22;23098;48.054;10.636;2022-12-04T13:12:44;1.50;99.90
37204;DHT22;23098;48.054;10.636;2022-12-04T13:15:16;1.50;99.90
37204;DHT22;23098;48.054;10.636;2022-12-04T13:17:44;1.40;99.90
37204;DHT22;23098;48.054;10.636;2022-12-04T13:20:32;1.50;99.90
37204;DHT22;23098;48.054;10.636;2022-12-04T13:23:20;1.60;99.90
37204;DHT22;23098;48.054;10.636;2022-12-04T13:28:35;1.50;99.90
37204;DHT22;23098;48.054;10.636;2022-12-04T13:31:15;1.50;99.90
37204;DHT22;23098;48.054;10.636;2022-12-04T13:34:07;1.50;99.90
37204;DHT22;23098;48.054;10.636;2022-12-04T13:42:28;1.30;99.90
37204;DHT22;23098;48.054;10.636;2022-12-04T13:44:55;1.40;99.90
37204;DHT22;23098;48.054;10.636;2022-12-04T13:47:34;1.30;99.90
37204;DHT22;23098;48.054;10.636;2022-12-04T13:52:50;1.40;99.90
37204;DHT22;23098;48.054;10.636;2022-12-04T13:55:37;1.40;99.90
37204;DHT22;23098;48.054;10.636;2022-12-04T14:00:41;1.30;99.90
37204;DHT22;23098;48.054;10.636;2022-12-04T14:03:31;1.30;99.90
37204;DHT22;23098;48.054;10.636;2022-12-04T14:05:57;1.30;99.90
37204;DHT22;23098;48.054;10.636;2022-12-04T14:08:36;1.20;99.90
37204;DHT22;23098;48.054;10.636;2022-12-04T14:11:11;1.30;99.90
37204;DHT22;23098;48.054;10.636;2022-12-04T14:13:50;1.20;99.90
37204;DHT22;23098;48.054;10.636;2022-12-04T14:16:26;1.10;99.90
37204;DHT22;23098;48.054;10.636;2022-12-04T14:18:56;1.10;99.90
37204;DHT22;23098;48.054;10.636;2022-12-04T14:21:23;1.10;99.90
37204;DHT22;23098;48.054;10.636;2022-12-04T14:23:50;1.10;99.90
37204;DHT22;23098;48.054;10.636;2022-12-04T14:26:25;1.20;99.90
37204;DHT22;23098;48.054;10.636;2022-12-04T14:28:52;1.20;99.90
37204;DHT22;23098;48.054;10.636;2022-12-04T14:31:24;1.30;99.90
37204;DHT22;23098;48.054;10.636;2022-12-04T14:34:02;1.30;99.90
37204;DHT22;23098;48.054;10.636;2022-12-04T14:36:33;1.30;99.90
37204;DHT22;23098;48.054;10.636;2022-12-04T14:39:10;1.20;99.90
37204;DHT22;23098;48.054;10.636;2022-12-04T14:41:37;1.20;99.90
37204;DHT22;23098;48.054;10.636;2022-12-04T14:44:03;1.20;99.90
37204;DHT22;23098;48.054;10.636;2022-12-04T14:46:42;1.10;99.90
37204;DHT22;23098;48.054;10.636;2022-12-04T14:52:14;1.10;99.90
37204;DHT22;23098;48.054;10.636;2022-12-04T15:01:02;1.00;99.90
37204;DHT22;23098;48.054;10.636;2022-12-04T15:03:33;1.00;99.90
37204;DHT22;23098;48.054;10.636;2022-12-04T15:06:23;1.00;99.90
37204;DHT22;23098;48.054;10.636;2022-12-04T15:08:52;1.00;99.90
37204;DHT22;23098;48.054;10.636;2022-12-04T15:11:19;1.00;99.90
37204;DHT22;23098;48.054;10.636;2022-12-04T15:14:12;1.00;99.90
37204;DHT22;23098;48.054;10.636;2022-12-04T15:16:40;1.00;99.90
37204;DHT22;23098;48.054;10.636;2022-12-04T15:19:15;1.00;99.90
37204;DHT22;23098;48.054;10.636;2022-12-04T15:21:41;0.90;99.90
37204;DHT22;23098;48.054;10.636;2022-12-04T15:24:09;0.90;99.90
37204;DHT22;23098;48.054;10.636;2022-12-04T15:26:36;1.00;99.90
37204;DHT22;23098;48.054;10.636;2022-12-04T15:29:05;1.00;99.90
37204;DHT22;23098;48.054;10.636;2022-12-04T15:31:36;1.00;99.90
37204;DHT22;23098;48.054;10.636;2022-12-04T15:34:11;1.00;99.90
37204;DHT22;23098;48.054;10.636;2022-12-04T15:39:15;1.00;99.90
37204;DHT22;23098;48.054;10.636;2022-12-04T15:41:41;1.00;99.90
37204;DHT22;23098;48.054;10.636;2022-12-04T15:45:27;1.00;99.90
37204;DHT22;23098;48.054;10.636;2022-12-04T15:47:53;1.00;99.90
37204;DHT22;23098;48.054;10.636;2022-12-04T15:52:57;0.90;99.90
37204;DHT22;23098;48.054;10.636;2022-12-04T15:55:25;0.90;99.90
37204;DHT22;23098;48.054;10.636;2022-12-04T15:58:03;0.90;99.90
37204;DHT22;23098;48.054;10.636;2022-12-04T16:00:35;0.80;99.90
37204;DHT22;23098;48.054;10.636;2022-12-04T16:05:47;0.90;99.90
37204;DHT22;23098;48.054;10.636;2022-12-04T16:08:23;0.90;99.90
37204;DHT22;23098;48.054;10.636;2022-12-04T16:11:07;1.00;99.90
37204;DHT22;23098;48.054;10.636;2022-12-04T16:14:02;0.90;99.90
37204;DHT22;23098;48.054;10.636;2022-12-04T16:16:28;1.00;99.90
37204;DHT22;23098;48.054;10.636;2022-12-04T16:18:54;1.00;99.90
37204;DHT22;23098;48.054;10.636;2022-12-04T16:21:24;1.00;99.90
37204;DHT22;23098;48.054;10.636;2022-12-04T16:23:52;1.00;99.90
37204;DHT22;23098;48.054;10.636;2022-12-04T16:26:18;1.00;99.90
37204;DHT22;23098;48.054;10.636;2022-12-04T16:28:44;1.10;99.90
37204;DHT22;23098;48.054;10.636;2022-12-04T16:31:11;1.10;99.90
37204;DHT22;23098;48.054;10.636;2022-12-04T16:33:38;1.10;99.90
37204;DHT22;23098;48.054;10.636;2022-12-04T16:36:04;1.10;99.90
37204;DHT22;23098;48.054;10.636;2022-12-04T16:38:30;1.10;99.90
37204;DHT22;23098;48.054;10.636;2022-12-04T16:40:55;1.10;99.90
37204;DHT22;23098;48.054;10.636;2022-12-04T16:43:21;1.10;99.90
37204;DHT22;23098;48.054;10.636;2022-12-04T16:45:50;1.10;99.90
37204;DHT22;23098;48.054;10.636;2022-12-04T16:48:16;1.10;99.90
37204;DHT22;23098;48.054;10.636;2022-12-04T16:50:42;1.10;99.90
37204;DHT22;23098;48.054;10.636;2022-12-04T16:53:14;1.10;99.90
37204;DHT22;23098;48.054;10.636;2022-12-04T16:55:40;1.10;99.90
37204;DHT22;23098;48.054;10.636;2022-12-04T16:58:05;1.00;99.90
37204;DHT22;23098;48.054;10.636;2022-12-04T17:00:32;1.00;99.90
37204;DHT22;23098;48.054;10.636;2022-12-04T17:02:58;1.00;99.90
37204;DHT22;23098;48.054;10.636;2022-12-04T17:05:27;1.00;99.90
37204;DHT22;23098;48.054;10.636;2022-12-04T17:07:53;1.00;99.90
37204;DHT22;23098;48.054;10.636;2022-12-04T17:10:20;1.00;99.90
37204;DHT22;23098;48.054;10.636;2022-12-04T17:12:46;1.00;99.90
37204;DHT22;23098;48.054;10.636;2022-12-04T17:15:12;1.00;99.90
37204;DHT22;23098;48.054;10.636;2022-12-04T17:17:38;0.90;99.90
37204;DHT22;23098;48.054;10.636;2022-12-04T17:20:07;0.90;99.90
37204;DHT22;23098;48.054;10.636;2022-12-04T17:22:35;0.90;99.90